Time;durP1;ratioP1;P1;durP2;ratioP2;P2;SDS_P1;SDS_P2;PMS_P1;PMS_P2;Temp;Humidity;BMP_temperature;BMP_pressure;BME280_temperature;BME280_humidity;BME280_pressure;Samples;Min_cycle;Max_cycle;Signal;HPM_P1;HPM_P2
2021/05/28 00:01:57;;;;;;;8.73;4.07;;;;;;;;;;5024663;28;20245;-53
2021/05/28 00:04:22;;;;;;;5.37;3.47;;;;;;;;;;5022233;28;20227;-53
2021/05/28 00:06:52;;;;;;;6.50;3.30;;;;;;;;;;5020430;28;20667;-54
2021/05/28 00:09:20;;;;;;;7.10;3.27;;;;;;;;;;5000897;28;20210;-53
2021/05/28 00:11:47;;;;;;;5.70;3.13;;;;;;;;;;5023377;28;20633;-54
2021/05/28 00:14:17;;;;;;;5.13;3.50;;;;;;;;;;5023463;28;20213;-55
2021/05/28 00:16:43;;;;;;;7.93;3.83;;;;;;;;;;5008546;28;20214;-53
2021/05/28 00:19:11;;;;;;;6.57;3.70;;;;;;;;;;5033691;28;20786;-53
2021/05/28 00:21:36;;;;;;;5.20;3.70;;;;;;;;;;5019057;28;20614;-56
2021/05/28 00:24:05;;;;;;;7.37;4.03;;;;;;;;;;5026963;28;20187;-54
2021/05/28 00:26:30;;;;;;;8.67;3.70;;;;;;;;;;5018814;28;20188;-54
2021/05/28 00:28:58;;;;;;;8.93;3.80;;;;;;;;;;5026237;28;20544;-54
2021/05/28 00:31:30;;;;;;;8.57;3.63;;;;;;;;;;5004488;28;20255;-55
2021/05/28 00:34:00;;;;;;;8.13;3.77;;;;;;;;;;5018982;28;20209;-54
2021/05/28 00:36:27;;;;;;;6.07;4.00;;;;;;;;;;5031590;28;20697;-54
2021/05/28 00:38:57;;;;;;;9.37;4.13;;;;;;;;;;5019495;28;20237;-53
2021/05/28 00:41:25;;;;;;;7.07;4.27;;;;;;;;;;5014333;28;20636;-54
2021/05/28 00:43:53;;;;;;;6.73;3.83;;;;;;;;;;5006969;28;20650;-54
2021/05/28 00:46:20;;;;;;;5.67;3.87;;;;;;;;;;5019177;28;20231;-54
2021/05/28 00:48:51;;;;;;;7.13;3.60;;;;;;;;;;5022860;28;20285;-55
2021/05/28 00:51:17;;;;;;;8.60;4.00;;;;;;;;;;5023034;28;20202;-55
2021/05/28 00:53:47;;;;;;;7.10;3.90;;;;;;;;;;5031740;28;20222;-55
2021/05/28 00:56:13;;;;;;;9.93;4.80;;;;;;;;;;5022921;28;20245;-54
2021/05/28 00:58:38;;;;;;;8.10;4.10;;;;;;;;;;5017669;28;20195;-54
2021/05/28 01:01:04;;;;;;;9.27;4.40;;;;;;;;;;5018593;28;20194;-53
2021/05/28 01:03:29;;;;;;;4.47;3.80;;;;;;;;;;5012684;28;20682;-54
2021/05/28 01:05:59;;;;;;;8.53;3.67;;;;;;;;;;5003851;28;20215;-55
2021/05/28 01:08:29;;;;;;;5.60;4.03;;;;;;;;;;5016520;28;20227;-55
2021/05/28 01:10:59;;;;;;;7.47;3.77;;;;;;;;;;5023749;28;20305;-54
2021/05/28 01:13:29;;;;;;;11.20;4.20;;;;;;;;;;4999867;28;20241;-55
2021/05/28 01:15:55;;;;;;;6.53;4.00;;;;;;;;;;5017167;28;20219;-54
2021/05/28 01:18:22;;;;;;;6.60;3.83;;;;;;;;;;5019124;28;20659;-54
2021/05/28 01:20:49;;;;;;;8.33;4.03;;;;;;;;;;5023432;28;20187;-54
2021/05/28 01:23:15;;;;;;;7.70;4.10;;;;;;;;;;5020579;28;20221;-55
2021/05/28 01:25:40;;;;;;;6.93;4.40;;;;;;;;;;5019777;28;20195;-54
2021/05/28 01:28:05;;;;;;;10.50;4.10;;;;;;;;;;5014507;28;20179;-54
2021/05/28 01:30:31;;;;;;;9.23;4.10;;;;;;;;;;5014244;28;20199;-54
2021/05/28 01:32:59;;;;;;;7.00;4.37;;;;;;;;;;5019168;28;20198;-53
2021/05/28 01:35:26;;;;;;;6.23;4.20;;;;;;;;;;5023206;28;20214;-53
2021/05/28 01:37:51;;;;;;;8.00;4.50;;;;;;;;;;5019907;28;20873;-53
2021/05/28 01:40:21;;;;;;;9.10;4.50;;;;;;;;;;5020988;28;20182;-52
2021/05/28 01:42:47;;;;;;;12.03;4.57;;;;;;;;;;5000035;28;20206;-55
2021/05/28 01:45:13;;;;;;;10.37;5.30;;;;;;;;;;5021868;28;20670;-53
2021/05/28 01:47:40;;;;;;;9.03;4.93;;;;;;;;;;5000230;28;20187;-54
2021/05/28 01:50:12;;;;;;;9.27;4.37;;;;;;;;;;5025259;28;20247;-54
2021/05/28 01:52:42;;;;;;;6.47;4.77;;;;;;;;;;5002706;28;20240;-53
2021/05/28 01:55:17;;;;;;;10.97;4.30;;;;;;;;;;5015893;28;20462;-53
2021/05/28 01:57:44;;;;;;;8.67;5.07;;;;;;;;;;5003107;28;20672;-53
2021/05/28 02:00:16;;;;;;;10.10;4.80;;;;;;;;;;5018327;28;20840;-54
2021/05/28 02:02:44;;;;;;;9.97;4.77;;;;;;;;;;5016106;28;20648;-54
2021/05/28 02:05:10;;;;;;;13.27;5.13;;;;;;;;;;5016948;28;20198;-53
2021/05/28 02:07:38;;;;;;;8.97;5.47;;;;;;;;;;5020333;28;20194;-53
2021/05/28 02:10:03;;;;;;;12.80;4.87;;;;;;;;;;5003515;28;20297;-53
2021/05/28 02:12:31;;;;;;;11.00;5.23;;;;;;;;;;4999585;28;20666;-53
2021/05/28 02:14:57;;;;;;;12.27;5.40;;;;;;;;;;5022610;28;20202;-53
2021/05/28 02:17:23;;;;;;;9.90;6.37;;;;;;;;;;5019938;28;20210;-53
2021/05/28 02:19:49;;;;;;;13.20;6.13;;;;;;;;;;5012464;28;20256;-54
2021/05/28 02:22:19;;;;;;;16.53;7.20;;;;;;;;;;5015745;28;20232;-55
2021/05/28 02:24:45;;;;;;;12.93;5.87;;;;;;;;;;5019397;28;20619;-53
2021/05/28 02:27:10;;;;;;;10.90;6.27;;;;;;;;;;5006670;28;20171;-53
2021/05/28 02:29:37;;;;;;;13.57;7.53;;;;;;;;;;5017904;28;20188;-53
2021/05/28 02:32:06;;;;;;;13.70;6.53;;;;;;;;;;5020749;28;20379;-53
2021/05/28 02:34:31;;;;;;;12.70;6.30;;;;;;;;;;5001358;28;20236;-54
2021/05/28 02:36:56;;;;;;;16.77;7.50;;;;;;;;;;5020736;28;20337;-53
2021/05/28 02:39:21;;;;;;;16.00;7.83;;;;;;;;;;5001780;28;20193;-53
2021/05/28 02:41:47;;;;;;;18.70;8.00;;;;;;;;;;4991458;28;20217;-53
2021/05/28 02:44:16;;;;;;;15.27;7.33;;;;;;;;;;5019946;28;20237;-53
2021/05/28 02:46:46;;;;;;;14.53;8.03;;;;;;;;;;5012496;28;20202;-53
2021/05/28 02:49:13;;;;;;;16.03;7.07;;;;;;;;;;5001451;28;20198;-53
2021/05/28 02:51:41;;;;;;;16.37;8.33;;;;;;;;;;5021651;28;20216;-53
2021/05/28 02:54:08;;;;;;;14.73;7.30;;;;;;;;;;5009015;28;20728;-53
2021/05/28 02:56:36;;;;;;;16.07;8.37;;;;;;;;;;5023326;28;20237;-55
2021/05/28 02:59:04;;;;;;;13.97;6.97;;;;;;;;;;5027327;28;20221;-54
2021/05/28 03:01:32;;;;;;;17.73;7.50;;;;;;;;;;5027489;28;20193;-52
2021/05/28 03:04:00;;;;;;;13.00;7.37;;;;;;;;;;5021557;28;20197;-54
2021/05/28 03:06:30;;;;;;;12.67;7.90;;;;;;;;;;5008989;28;20241;-52
2021/05/28 03:09:00;;;;;;;14.97;7.93;;;;;;;;;;5025046;28;20195;-53
2021/05/28 03:11:27;;;;;;;16.07;8.50;;;;;;;;;;5027745;28;20567;-53
2021/05/28 03:13:55;;;;;;;14.03;7.93;;;;;;;;;;5021998;28;20217;-53
2021/05/28 03:16:22;;;;;;;13.40;8.17;;;;;;;;;;5006099;28;20356;-53
2021/05/28 03:18:51;;;;;;;14.10;7.87;;;;;;;;;;5015733;28;20182;-53
2021/05/28 03:21:37;;;;;;;14.10;8.47;;;;;;;;;;5019448;28;20225;-53
2021/05/28 03:24:04;;;;;;;13.97;7.43;;;;;;;;;;5027082;28;20182;-53
2021/05/28 03:26:32;;;;;;;19.60;8.90;;;;;;;;;;5028265;28;20416;-53
2021/05/28 03:28:59;;;;;;;19.10;7.93;;;;;;;;;;5024985;28;20221;-52
2021/05/28 03:31:27;;;;;;;17.37;7.90;;;;;;;;;;5027759;28;20182;-53
2021/05/28 03:33:55;;;;;;;20.93;8.20;;;;;;;;;;5020706;28;20222;-52
2021/05/28 03:36:20;;;;;;;18.97;8.13;;;;;;;;;;5032161;28;20234;-53
2021/05/28 03:38:47;;;;;;;15.07;8.03;;;;;;;;;;5021566;28;20571;-53
2021/05/28 03:41:15;;;;;;;14.97;8.60;;;;;;;;;;5019393;28;20234;-53
2021/05/28 03:43:43;;;;;;;14.60;9.20;;;;;;;;;;5018100;28;20288;-53
2021/05/28 03:46:09;;;;;;;12.93;9.67;;;;;;;;;;5015685;28;20549;-53
2021/05/28 03:48:34;;;;;;;17.00;9.67;;;;;;;;;;5013109;28;20184;-53
2021/05/28 03:51:02;;;;;;;19.93;10.87;;;;;;;;;;5020102;28;20187;-53
2021/05/28 03:53:29;;;;;;;17.73;9.17;;;;;;;;;;5024107;28;20784;-53
2021/05/28 03:55:55;;;;;;;12.63;9.57;;;;;;;;;;5003111;28;20203;-53
2021/05/28 03:58:25;;;;;;;16.53;8.53;;;;;;;;;;5005175;28;20284;-53
2021/05/28 04:00:57;;;;;;;17.00;9.23;;;;;;;;;;5021488;28;20197;-52
2021/05/28 04:03:27;;;;;;;16.67;9.37;;;;;;;;;;5017851;28;20217;-52
2021/05/28 04:05:57;;;;;;;15.80;8.70;;;;;;;;;;5024518;28;20194;-53
2021/05/28 04:08:24;;;;;;;12.67;8.10;;;;;;;;;;5023177;28;20274;-53
2021/05/28 04:10:54;;;;;;;15.50;8.93;;;;;;;;;;5024952;28;20226;-52
2021/05/28 04:13:27;;;;;;;12.40;8.80;;;;;;;;;;5016651;28;20245;-53
2021/05/28 04:15:58;;;;;;;18.03;9.83;;;;;;;;;;5023437;28;20290;-53
2021/05/28 04:18:25;;;;;;;17.40;9.07;;;;;;;;;;5018648;28;20211;-53
2021/05/28 04:20:51;;;;;;;15.63;8.63;;;;;;;;;;5016941;28;21483;-54
2021/05/28 04:23:18;;;;;;;19.33;9.07;;;;;;;;;;5005431;28;20199;-53
2021/05/28 04:25:46;;;;;;;14.00;8.30;;;;;;;;;;5018913;28;20198;-52
2021/05/28 04:28:15;;;;;;;14.47;7.97;;;;;;;;;;5005550;28;20725;-52
2021/05/28 04:30:40;;;;;;;15.77;9.80;;;;;;;;;;5021685;28;20187;-54
2021/05/28 04:33:08;;;;;;;17.40;9.20;;;;;;;;;;5016587;28;20731;-52
2021/05/28 04:35:37;;;;;;;18.30;9.60;;;;;;;;;;5015754;28;20281;-54
2021/05/28 04:38:04;;;;;;;18.00;8.93;;;;;;;;;;5022020;28;20220;-53
2021/05/28 04:40:32;;;;;;;17.57;9.87;;;;;;;;;;5024856;28;20195;-53
2021/05/28 04:42:58;;;;;;;13.80;8.60;;;;;;;;;;5016633;28;20273;-53
2021/05/28 04:45:27;;;;;;;12.67;8.03;;;;;;;;;;5027328;28;20198;-53
2021/05/28 04:47:56;;;;;;;15.60;9.50;;;;;;;;;;5021177;28;20193;-52
2021/05/28 04:50:22;;;;;;;17.50;9.33;;;;;;;;;;5005933;28;20238;-52
2021/05/28 04:52:47;;;;;;;10.23;7.90;;;;;;;;;;5021058;28;20209;-54
2021/05/28 04:55:17;;;;;;;13.90;8.40;;;;;;;;;;5015542;28;20543;-53
2021/05/28 04:57:47;;;;;;;15.43;7.90;;;;;;;;;;5007974;28;20186;-53
2021/05/28 05:00:13;;;;;;;14.37;7.77;;;;;;;;;;5019601;28;20201;-53
2021/05/28 05:02:43;;;;;;;14.80;8.00;;;;;;;;;;5020328;28;20211;-52
2021/05/28 05:05:11;;;;;;;13.50;7.77;;;;;;;;;;5021518;28;20191;-54
2021/05/28 05:07:43;;;;;;;12.30;7.00;;;;;;;;;;5020367;28;20610;-53
2021/05/28 05:10:13;;;;;;;16.00;7.33;;;;;;;;;;5005817;28;20562;-52
2021/05/28 05:12:44;;;;;;;13.00;7.43;;;;;;;;;;5014303;28;20213;-54
2021/05/28 05:15:12;;;;;;;14.17;7.63;;;;;;;;;;5024185;28;20233;-54
2021/05/28 05:17:38;;;;;;;11.93;8.03;;;;;;;;;;4999940;28;20210;-53
2021/05/28 05:20:05;;;;;;;12.27;7.93;;;;;;;;;;5021629;28;20195;-51
2021/05/28 05:22:30;;;;;;;14.53;8.37;;;;;;;;;;5021231;28;20210;-55
2021/05/28 05:24:56;;;;;;;14.83;8.67;;;;;;;;;;5018291;28;20199;-53
2021/05/28 05:27:25;;;;;;;19.27;11.33;;;;;;;;;;5017770;28;20191;-54
2021/05/28 05:29:53;;;;;;;21.13;10.20;;;;;;;;;;5020317;28;20201;-54
2021/05/28 05:32:18;;;;;;;16.27;9.67;;;;;;;;;;5023954;28;20237;-53
2021/05/28 05:34:46;;;;;;;15.40;10.20;;;;;;;;;;5018049;28;20277;-53
2021/05/28 05:37:16;;;;;;;16.23;10.93;;;;;;;;;;5024936;28;20238;-53
2021/05/28 05:39:46;;;;;;;13.03;10.30;;;;;;;;;;5014266;28;20197;-53
2021/05/28 05:42:16;;;;;;;15.97;11.40;;;;;;;;;;5014169;28;20284;-53
2021/05/28 05:44:43;;;;;;;14.40;11.07;;;;;;;;;;5019850;28;20198;-53
2021/05/28 05:47:08;;;;;;;14.00;10.00;;;;;;;;;;4997443;28;20190;-54
2021/05/28 05:49:35;;;;;;;19.63;10.83;;;;;;;;;;5019957;28;20428;-54
2021/05/28 05:52:01;;;;;;;12.60;9.83;;;;;;;;;;5016457;28;20269;-54
2021/05/28 05:54:27;;;;;;;13.87;10.30;;;;;;;;;;5032134;23;20250;-84
2021/05/28 05:56:53;;;;;;;14.93;10.07;;;;;;;;;;4970741;28;20227;-86
2021/05/28 05:59:20;;;;;;;17.40;11.30;;;;;;;;;;4979503;28;20234;-81
2021/05/28 06:01:46;;;;;;;16.80;10.03;;;;;;;;;;4977641;28;20286;-84
2021/05/28 06:04:11;;;;;;;13.47;10.47;;;;;;;;;;4986597;28;20800;-82
2021/05/28 06:06:36;;;;;;;13.73;10.07;;;;;;;;;;4978702;28;20176;-81
2021/05/28 06:09:04;;;;;;;14.80;10.00;;;;;;;;;;4982536;28;20235;-81
2021/05/28 06:11:30;;;;;;;11.17;9.67;;;;;;;;;;4976326;28;20212;-81
2021/05/28 06:13:55;;;;;;;10.63;9.53;;;;;;;;;;4981178;28;20192;-83
2021/05/28 06:16:20;;;;;;;13.13;9.30;;;;;;;;;;4978631;28;20243;-84
2021/05/28 06:18:46;;;;;;;19.43;10.33;;;;;;;;;;4984494;28;20216;-83
2021/05/28 06:21:11;;;;;;;13.27;9.73;;;;;;;;;;4981841;28;20561;-84
2021/05/28 06:23:36;;;;;;;15.90;9.57;;;;;;;;;;4983436;28;20235;-81
2021/05/28 06:26:01;;;;;;;13.90;8.40;;;;;;;;;;4976772;28;20264;-83
2021/05/28 06:28:27;;;;;;;12.67;8.23;;;;;;;;;;4978418;28;20216;-83
2021/05/28 06:30:54;;;;;;;11.00;8.70;;;;;;;;;;4981500;28;20188;-82
2021/05/28 06:33:19;;;;;;;15.13;9.17;;;;;;;;;;4982176;28;20282;-83
2021/05/28 06:35:45;;;;;;;12.10;8.53;;;;;;;;;;4985068;28;20283;-83
2021/05/28 06:38:10;;;;;;;15.83;7.90;;;;;;;;;;4977721;28;20239;-85
2021/05/28 06:40:37;;;;;;;13.77;8.57;;;;;;;;;;4984321;28;20275;-84
2021/05/28 06:43:02;;;;;;;12.90;8.50;;;;;;;;;;4980272;28;20188;-84
2021/05/28 06:45:28;;;;;;;10.77;7.33;;;;;;;;;;4984897;28;20195;-84
2021/05/28 06:47:53;;;;;;;11.03;7.37;;;;;;;;;;4984716;28;20695;-85
2021/05/28 06:50:20;;;;;;;11.20;7.47;;;;;;;;;;4978575;28;20567;-83
2021/05/28 06:52:47;;;;;;;10.63;6.23;;;;;;;;;;4982106;28;20242;-85
2021/05/28 06:55:12;;;;;;;11.83;6.77;;;;;;;;;;4991881;28;20319;-86
2021/05/28 06:57:38;;;;;;;12.97;6.80;;;;;;;;;;4977788;28;20292;-86
2021/05/28 07:00:07;;;;;;;9.50;6.43;;;;;;;;;;4978959;28;20287;-85
2021/05/28 07:02:35;;;;;;;8.53;6.77;;;;;;;;;;4981945;28;20204;-82
2021/05/28 07:05:01;;;;;;;8.60;6.00;;;;;;;;;;4974880;28;20188;-84
2021/05/28 07:07:26;;;;;;;8.80;4.93;;;;;;;;;;4974667;28;20706;-86
2021/05/28 07:09:52;;;;;;;7.60;5.03;;;;;;;;;;4985518;28;20188;-85
2021/05/28 07:12:17;;;;;;;7.47;5.00;;;;;;;;;;4981725;28;20202;-86
2021/05/28 07:14:45;;;;;;;13.77;5.27;;;;;;;;;;4984939;28;20199;-84
2021/05/28 07:17:10;;;;;;;6.55;4.32;;;;;;;;;;4988902;28;20315;-88
2021/05/28 07:19:36;;;;;;;8.10;4.03;;;;;;;;;;4980380;28;20275;-89
2021/05/28 07:22:01;;;;;;;9.70;4.05;;;;;;;;;;4980891;28;20652;-84
2021/05/28 07:24:27;;;;;;;7.07;3.75;;;;;;;;;;4982568;28;20203;-85
2021/05/28 07:26:55;;;;;;;7.55;4.50;;;;;;;;;;4981604;28;20187;-84
2021/05/28 07:29:20;;;;;;;12.68;4.30;;;;;;;;;;4982676;28;20200;-84
2021/05/28 07:31:46;;;;;;;7.10;3.60;;;;;;;;;;4986664;28;20648;-85
2021/05/28 07:34:11;;;;;;;7.53;4.05;;;;;;;;;;4981765;28;20211;-84
2021/05/28 07:36:39;;;;;;;6.57;4.28;;;;;;;;;;4987917;28;20204;-84
2021/05/28 07:39:05;;;;;;;7.85;4.82;;;;;;;;;;4985808;28;20319;-85
2021/05/28 07:41:30;;;;;;;7.50;4.28;;;;;;;;;;4990985;28;20192;-85
2021/05/28 07:43:55;;;;;;;7.10;4.00;;;;;;;;;;4983360;28;20229;-82
2021/05/28 07:46:21;;;;;;;12.07;4.55;;;;;;;;;;4986908;28;20563;-79
2021/05/28 07:48:46;;;;;;;5.57;4.45;;;;;;;;;;4988644;28;20215;-84
2021/05/28 07:51:11;;;;;;;6.22;4.68;;;;;;;;;;4983902;28;20679;-78
2021/05/28 07:53:37;;;;;;;7.38;4.55;;;;;;;;;;4985339;28;20254;-75
2021/05/28 07:56:05;;;;;;;7.90;4.45;;;;;;;;;;4982775;28;20282;-81
2021/05/28 07:58:32;;;;;;;7.22;5.43;;;;;;;;;;4988851;28;20223;-84
2021/05/28 08:00:58;;;;;;;11.93;5.30;;;;;;;;;;4988428;28;20215;-79
2021/05/28 08:03:23;;;;;;;6.20;4.85;;;;;;;;;;4984117;28;20215;-84
2021/05/28 08:05:51;;;;;;;8.90;4.53;;;;;;;;;;4986218;28;20726;-85
2021/05/28 08:08:19;;;;;;;7.10;4.80;;;;;;;;;;4979131;28;20218;-80
2021/05/28 08:10:44;;;;;;;13.23;6.72;;;;;;;;;;4982570;28;20195;-75
2021/05/28 08:13:09;;;;;;;9.23;5.80;;;;;;;;;;4982727;28;20311;-72
2021/05/28 08:15:38;;;;;;;9.38;5.50;;;;;;;;;;4984394;28;20197;-75
2021/05/28 08:18:04;;;;;;;8.95;4.80;;;;;;;;;;4985896;28;20199;-76
2021/05/28 08:20:30;;;;;;;6.93;4.72;;;;;;;;;;4985487;28;20224;-80
2021/05/28 08:22:58;;;;;;;10.98;5.25;;;;;;;;;;4980479;28;20195;-79
2021/05/28 08:25:24;;;;;;;9.30;5.13;;;;;;;;;;4978309;28;20661;-83
2021/05/28 08:27:49;;;;;;;8.23;4.30;;;;;;;;;;4982900;28;20234;-79
2021/05/28 08:30:16;;;;;;;6.75;4.80;;;;;;;;;;4985596;28;20666;-80
2021/05/28 08:32:42;;;;;;;7.97;4.65;;;;;;;;;;4987666;28;20195;-82
2021/05/28 08:35:08;;;;;;;8.15;5.20;;;;;;;;;;4983603;28;20591;-81
2021/05/28 08:37:33;;;;;;;8.80;4.80;;;;;;;;;;4983358;28;20211;-85
2021/05/28 08:40:00;;;;;;;5.72;4.50;;;;;;;;;;4981987;28;20211;-78
2021/05/28 08:42:28;;;;;;;6.55;4.70;;;;;;;;;;4982463;28;20283;-80
2021/05/28 08:44:53;;;;;;;5.80;5.30;;;;;;;;;;4987231;28;20568;-79
2021/05/28 08:47:18;;;;;;;7.03;5.38;;;;;;;;;;4982994;28;20214;-78
2021/05/28 08:49:48;;;;;;;6.65;5.10;;;;;;;;;;4993019;28;20195;-81
2021/05/28 08:52:13;;;;;;;5.40;4.80;;;;;;;;;;4985553;28;20183;-80
2021/05/28 08:54:39;;;;;;;7.28;4.80;;;;;;;;;;4984621;28;20194;-80
2021/05/28 08:57:05;;;;;;;6.13;4.78;;;;;;;;;;4981223;28;20203;-80
2021/05/28 08:59:31;;;;;;;6.45;4.90;;;;;;;;;;4980920;28;20592;-79
2021/05/28 09:01:56;;;;;;;6.65;5.38;;;;;;;;;;4982673;28;20187;-80
2021/05/28 09:04:21;;;;;;;6.65;5.18;;;;;;;;;;4977660;28;20191;-81
2021/05/28 09:06:47;;;;;;;7.20;5.10;;;;;;;;;;4983535;28;20212;-81
2021/05/28 09:09:15;;;;;;;5.30;4.45;;;;;;;;;;4983830;28;20203;-80
2021/05/28 09:11:50;;;;;;;7.82;5.10;;;;;;;;;;4985437;28;20282;-80
2021/05/28 09:14:43;;;;;;;6.70;4.90;;;;;;;;;;4988707;28;20175;-80
2021/05/28 09:17:10;;;;;;;7.07;4.60;;;;;;;;;;4981891;28;20727;-81
2021/05/28 09:19:37;;;;;;;7.13;5.20;;;;;;;;;;4984633;28;20634;-79
2021/05/28 09:22:05;;;;;;;6.22;4.78;;;;;;;;;;4984865;28;20195;-79
2021/05/28 09:24:35;;;;;;;5.05;4.55;;;;;;;;;;4986567;28;20211;-79
2021/05/28 09:27:31;;;;;;;5.88;4.13;;;;;;;;;;4978814;28;20207;-79
2021/05/28 09:30:08;;;;;;;6.78;5.00;;;;;;;;;;4977645;28;20204;-79
2021/05/28 09:32:38;;;;;;;6.72;4.93;;;;;;;;;;4983365;28;20183;-80
2021/05/28 09:35:05;;;;;;;6.88;4.07;;;;;;;;;;4981655;28;20729;-79
2021/05/28 09:37:35;;;;;;;5.55;3.90;;;;;;;;;;4981400;28;20204;-78
2021/05/28 09:40:29;;;;;;;5.03;3.45;;;;;;;;;;4985425;28;20875;-77
2021/05/28 09:42:59;;;;;;;5.07;3.20;;;;;;;;;;4981927;28;20200;-82
2021/05/28 09:45:33;;;;;;;3.67;3.38;;;;;;;;;;4985925;28;20219;-83
2021/05/28 09:48:04;;;;;;;5.28;3.75;;;;;;;;;;4981360;28;20752;-84
2021/05/28 09:50:33;;;;;;;3.78;3.30;;;;;;;;;;4984025;28;20194;-83
2021/05/28 09:53:03;;;;;;;4.70;4.00;;;;;;;;;;4979742;28;20722;-83
2021/05/28 09:55:30;;;;;;;4.90;4.40;;;;;;;;;;4979517;28;20192;-80
2021/05/28 09:57:57;;;;;;;6.93;4.00;;;;;;;;;;4979053;28;20204;-83
2021/05/28 10:00:33;;;;;;;4.22;3.75;;;;;;;;;;4997736;28;20187;-83
2021/05/28 10:03:26;;;;;;;4.75;3.60;;;;;;;;;;4980922;28;20190;-78
2021/05/28 10:05:58;;;;;;;4.15;3.10;;;;;;;;;;4966654;28;20243;-80
2021/05/28 10:08:26;;;;;;;5.40;3.42;;;;;;;;;;4975964;28;20692;-80
2021/05/28 10:10:54;;;;;;;5.50;3.63;;;;;;;;;;4987683;28;20228;-80
2021/05/28 10:13:21;;;;;;;4.60;3.85;;;;;;;;;;4979622;28;20207;-80
2021/05/28 10:15:55;;;;;;;7.15;4.15;;;;;;;;;;4985865;28;20557;-79
2021/05/28 10:18:22;;;;;;;10.05;4.90;;;;;;;;;;4986617;28;20226;-80
2021/05/28 10:20:49;;;;;;;5.75;4.60;;;;;;;;;;4985182;28;20188;-79
2021/05/28 10:23:18;;;;;;;7.85;4.90;;;;;;;;;;4984036;28;20566;-80
2021/05/28 10:25:46;;;;;;;6.03;4.75;;;;;;;;;;4980656;28;20216;-79
2021/05/28 10:28:22;;;;;;;5.00;4.43;;;;;;;;;;4983377;28;24863;-79
2021/05/28 10:30:48;;;;;;;5.05;4.50;;;;;;;;;;4982588;28;20183;-80
2021/05/28 10:33:22;;;;;;;6.38;5.10;;;;;;;;;;4985301;28;20184;-80
2021/05/28 10:35:50;;;;;;;7.95;6.03;;;;;;;;;;4988002;28;20179;-80
2021/05/28 10:38:31;;;;;;;24.17;5.13;;;;;;;;;;4980718;28;20203;-79
2021/05/28 10:40:59;;;;;;;5.70;4.93;;;;;;;;;;4987493;28;20275;-80
2021/05/28 10:43:27;;;;;;;7.68;4.85;;;;;;;;;;4976612;28;20204;-80
2021/05/28 10:46:04;;;;;;;6.55;5.35;;;;;;;;;;4984641;28;20683;-85
2021/05/28 10:51:13;;;;;;;5.32;4.78;;;;;;;;;;4985460;28;20200;-78
2021/05/28 10:53:40;;;;;;;4.80;3.95;;;;;;;;;;4987065;28;20187;-79
2021/05/28 10:56:12;;;;;;;6.80;4.25;;;;;;;;;;4981858;28;20197;-77
2021/05/28 10:59:02;;;;;;;5.15;3.90;;;;;;;;;;4997375;28;20211;-77
2021/05/28 11:01:47;;;;;;;6.63;4.30;;;;;;;;;;4979923;28;20191;-80
2021/05/28 11:04:17;;;;;;;8.00;4.97;;;;;;;;;;4979205;28;20188;-79
2021/05/28 11:06:55;;;;;;;9.27;4.60;;;;;;;;;;4981125;28;20196;-78
2021/05/28 11:09:42;;;;;;;6.97;5.13;;;;;;;;;;4982470;28;20187;-78
2021/05/28 11:12:11;;;;;;;8.95;6.28;;;;;;;;;;4987535;28;20180;-75
2021/05/28 11:14:40;;;;;;;4.15;3.63;;;;;;;;;;4987582;28;20259;-79
2021/05/28 11:17:10;;;;;;;5.75;4.53;;;;;;;;;;4987484;28;20200;-80
2021/05/28 11:19:42;;;;;;;6.10;4.53;;;;;;;;;;4984897;28;20187;-81
2021/05/28 11:22:12;;;;;;;5.72;4.90;;;;;;;;;;4984297;28;20586;-80
2021/05/28 11:24:53;;;;;;;9.20;4.72;;;;;;;;;;4990277;28;20188;-80
2021/05/28 11:27:21;;;;;;;7.57;4.38;;;;;;;;;;4985255;28;20218;-81
2021/05/28 11:29:51;;;;;;;7.05;5.90;;;;;;;;;;4989429;28;20223;-81
2021/05/28 11:32:43;;;;;;;5.15;4.50;;;;;;;;;;4989151;28;20184;-80
2021/05/28 11:35:22;;;;;;;7.68;5.03;;;;;;;;;;4983589;28;20779;-81
2021/05/28 11:38:06;;;;;;;6.68;5.22;;;;;;;;;;4987511;28;20266;-82
2021/05/28 11:40:35;;;;;;;5.78;5.20;;;;;;;;;;4987330;28;20250;-80
2021/05/28 11:43:19;;;;;;;7.50;4.97;;;;;;;;;;4988623;28;20184;-81
2021/05/28 11:45:50;;;;;;;6.40;5.07;;;;;;;;;;4980410;28;20222;-80
2021/05/28 11:48:18;;;;;;;6.88;5.05;;;;;;;;;;4983640;28;20263;-81
2021/05/28 11:50:48;;;;;;;7.30;6.60;;;;;;;;;;4988985;28;20192;-83
2021/05/28 11:53:17;;;;;;;9.80;6.93;;;;;;;;;;4984195;28;20195;-83
2021/05/28 11:55:47;;;;;;;9.77;7.05;;;;;;;;;;4981092;28;20602;-91
2021/05/28 11:58:13;;;;;;;7.40;6.13;;;;;;;;;;4995551;28;20297;-88
2021/05/28 12:00:41;;;;;;;10.82;6.43;;;;;;;;;;4986207;28;20192;-84
2021/05/28 12:03:10;;;;;;;7.00;6.30;;;;;;;;;;4989744;28;20204;-86
2021/05/28 12:05:37;;;;;;;7.35;6.30;;;;;;;;;;4987196;28;20559;-85
2021/05/28 12:08:17;;;;;;;6.78;6.07;;;;;;;;;;4988657;28;20290;-84
2021/05/28 12:10:44;;;;;;;6.65;6.05;;;;;;;;;;4991850;28;20909;-84
2021/05/28 12:13:15;;;;;;;7.10;5.80;;;;;;;;;;4987492;28;20200;-80
2021/05/28 12:15:44;;;;;;;11.93;6.75;;;;;;;;;;4993263;28;20184;-85
2021/05/28 12:18:24;;;;;;;6.93;5.82;;;;;;;;;;4988095;28;20298;-86
2021/05/28 12:21:05;;;;;;;5.50;5.00;;;;;;;;;;4983330;28;20196;-88
2021/05/28 12:23:37;;;;;;;6.95;5.70;;;;;;;;;;4986351;28;20558;-81
2021/05/28 12:26:06;;;;;;;6.85;5.78;;;;;;;;;;4983048;28;20208;-84
2021/05/28 12:28:36;;;;;;;5.70;5.10;;;;;;;;;;4983166;28;20212;-81
2021/05/28 12:31:17;;;;;;;5.88;4.25;;;;;;;;;;4980368;28;20191;-80
2021/05/28 12:33:44;;;;;;;8.73;4.80;;;;;;;;;;4981305;28;20180;-84
2021/05/28 12:36:16;;;;;;;5.25;4.15;;;;;;;;;;4979850;28;20242;-76
2021/05/28 12:38:50;;;;;;;4.72;3.50;;;;;;;;;;4981126;28;20214;-81
2021/05/28 12:41:26;;;;;;;5.28;4.03;;;;;;;;;;4987329;28;20196;-83
2021/05/28 12:43:59;;;;;;;6.28;5.38;;;;;;;;;;4982830;28;20223;-81
2021/05/28 12:46:32;;;;;;;7.57;5.55;;;;;;;;;;4987414;28;20943;-81
2021/05/28 12:48:59;;;;;;;5.38;4.65;;;;;;;;;;4985304;28;20702;-81
2021/05/28 12:51:38;;;;;;;8.15;4.80;;;;;;;;;;4984608;28;20262;-83
2021/05/28 12:54:21;;;;;;;8.15;4.60;;;;;;;;;;4983380;28;20220;-80
2021/05/28 12:56:47;;;;;;;8.43;5.28;;;;;;;;;;4979435;28;20227;-80
2021/05/28 12:59:21;;;;;;;7.55;5.30;;;;;;;;;;4990224;28;20215;-81
2021/05/28 13:01:48;;;;;;;6.78;6.07;;;;;;;;;;4986501;28;20238;-80
2021/05/28 13:04:13;;;;;;;7.70;6.45;;;;;;;;;;4979523;28;20208;-80
2021/05/28 13:06:40;;;;;;;10.98;6.30;;;;;;;;;;4986534;28;20259;-80
2021/05/28 13:09:24;;;;;;;8.20;6.75;;;;;;;;;;4986053;28;20258;-81
2021/05/28 13:12:07;;;;;;;8.07;6.25;;;;;;;;;;4982563;28;20319;-83
2021/05/28 13:14:50;;;;;;;10.13;6.85;;;;;;;;;;4987431;28;20575;-82
2021/05/28 13:17:32;;;;;;;7.13;6.07;;;;;;;;;;4982655;28;20299;-82
2021/05/28 13:20:19;;;;;;;7.35;6.65;;;;;;;;;;4985176;28;20215;-79
2021/05/28 13:22:49;;;;;;;6.63;5.50;;;;;;;;;;4982805;28;20600;-85
2021/05/28 13:25:22;;;;;;;9.30;5.80;;;;;;;;;;4982964;28;20211;-80
2021/05/28 13:28:00;;;;;;;7.80;5.45;;;;;;;;;;4982425;28;20630;-83
2021/05/28 13:30:30;;;;;;;6.28;5.38;;;;;;;;;;4988127;28;20199;-80
2021/05/28 13:33:09;;;;;;;5.82;5.20;;;;;;;;;;4979493;28;20188;-80
2021/05/28 13:35:34;;;;;;;5.35;4.57;;;;;;;;;;4987165;28;20693;-81
2021/05/28 13:38:00;;;;;;;4.90;4.38;;;;;;;;;;4980244;28;20283;-81
2021/05/28 13:40:25;;;;;;;16.08;7.53;;;;;;;;;;4974973;28;20735;-82
2021/05/28 13:42:50;;;;;;;3.97;3.65;;;;;;;;;;4975524;28;20195;-80
2021/05/28 13:45:15;;;;;;;10.68;6.22;;;;;;;;;;4984873;28;20220;-81
2021/05/28 13:47:41;;;;;;;7.72;5.90;;;;;;;;;;4985534;28;20200;-81
2021/05/28 13:50:08;;;;;;;6.13;5.45;;;;;;;;;;4979478;28;20735;-81
2021/05/28 13:52:34;;;;;;;5.55;4.95;;;;;;;;;;4984867;28;20234;-80
2021/05/28 13:55:01;;;;;;;5.78;5.13;;;;;;;;;;4985206;28;20668;-80
2021/05/28 13:57:27;;;;;;;6.10;5.50;;;;;;;;;;4985559;28;20277;-81
2021/05/28 13:59:52;;;;;;;5.55;4.78;;;;;;;;;;4984201;28;20215;-81
2021/05/28 14:02:18;;;;;;;5.20;4.63;;;;;;;;;;4977779;28;20199;-83
2021/05/28 14:04:43;;;;;;;6.20;4.82;;;;;;;;;;4986488;28;20240;-82
2021/05/28 14:07:11;;;;;;;4.65;3.90;;;;;;;;;;4983278;28;20662;-83
2021/05/28 14:09:36;;;;;;;4.30;3.70;;;;;;;;;;4992180;28;20249;-80
2021/05/28 14:12:02;;;;;;;4.15;3.50;;;;;;;;;;4982560;28;20211;-80
2021/05/28 14:14:27;;;;;;;4.82;3.40;;;;;;;;;;4979769;28;20238;-80
2021/05/28 14:16:53;;;;;;;4.60;3.72;;;;;;;;;;4981255;28;20238;-80
2021/05/28 14:19:18;;;;;;;5.60;4.00;;;;;;;;;;4981089;28;20207;-79
2021/05/28 14:21:44;;;;;;;5.95;3.53;;;;;;;;;;4984221;28;20274;-80
2021/05/28 14:24:09;;;;;;;6.43;3.78;;;;;;;;;;4977979;28;20606;-80
2021/05/28 14:26:34;;;;;;;3.60;3.30;;;;;;;;;;4980355;28;20231;-80
2021/05/28 14:29:00;;;;;;;4.05;3.30;;;;;;;;;;4975627;28;20205;-81
2021/05/28 14:31:25;;;;;;;6.93;3.78;;;;;;;;;;4983052;28;20192;-81
2021/05/28 14:33:54;;;;;;;5.28;4.30;;;;;;;;;;4984350;28;20181;-81
2021/05/28 14:36:22;;;;;;;4.18;3.35;;;;;;;;;;4982462;28;20203;-81
2021/05/28 14:38:51;;;;;;;7.00;3.40;;;;;;;;;;4986247;28;20694;-80
2021/05/28 14:41:18;;;;;;;4.60;3.08;;;;;;;;;;5004098;28;20238;-82
2021/05/28 14:43:45;;;;;;;3.17;2.60;;;;;;;;;;4989980;28;20268;-80
2021/05/28 14:46:13;;;;;;;4.25;2.90;;;;;;;;;;4986313;28;20258;-86
2021/05/28 14:48:39;;;;;;;4.38;2.88;;;;;;;;;;4980142;28;20203;-83
2021/05/28 14:51:04;;;;;;;3.67;2.88;;;;;;;;;;4984050;28;20653;-83